Time;durP1;ratioP1;P1;durP2;ratioP2;P2;SDS_P1;SDS_P2;PMS_P1;PMS_P2;Temp;Humidity;BMP_temperature;BMP_pressure;BME280_temperature;BME280_humidity;BME280_pressure;Samples;Min_cycle;Max_cycle;Signal;HPM_P1;HPM_P2
2023/04/27 00:00:36;;;;;;;4.35;3.95;;;4.00;99.90;;;;;;514030;231;27874;-71
2023/04/27 00:02:37;;;;;;;4.82;4.40;;;4.10;99.90;;;;;;514040;231;27925;-72
2023/04/27 00:04:38;;;;;;;5.53;4.30;;;4.10;99.90;;;;;;513954;231;27331;-72
2023/04/27 00:06:40;;;;;;;6.15;4.20;;;4.10;99.90;;;;;;514008;231;27386;-72
2023/04/27 00:08:41;;;;;;;8.43;3.85;;;4.10;99.90;;;;;;514022;231;27343;-71
2023/04/27 00:10:42;;;;;;;7.70;4.32;;;4.00;99.90;;;;;;514017;231;27414;-71
2023/04/27 00:12:43;;;;;;;5.28;4.22;;;4.00;99.90;;;;;;514023;231;27402;-72
2023/04/27 00:14:45;;;;;;;6.30;4.20;;;4.00;99.90;;;;;;513933;231;27339;-71
2023/04/27 00:16:46;;;;;;;5.75;4.35;;;4.00;99.90;;;;;;513997;231;27455;-71
2023/04/27 00:18:47;;;;;;;10.23;4.50;;;4.00;99.90;;;;;;513973;231;27367;-72
2023/04/27 00:20:48;;;;;;;6.70;4.60;;;4.00;99.90;;;;;;514016;231;27882;-72
2023/04/27 00:22:50;;;;;;;5.82;4.00;;;4.00;99.90;;;;;;513982;231;27857;-71
2023/04/27 00:24:51;;;;;;;5.93;4.10;;;3.90;99.90;;;;;;513887;231;27823;-72
2023/04/27 00:26:52;;;;;;;4.95;4.43;;;3.80;99.90;;;;;;514043;231;27540;-71
2023/04/27 00:28:53;;;;;;;6.45;4.28;;;3.80;99.90;;;;;;514060;231;27440;-72
2023/04/27 00:30:55;;;;;;;4.87;4.07;;;3.70;99.90;;;;;;514019;231;27397;-72
2023/04/27 00:32:56;;;;;;;5.65;3.90;;;3.60;99.90;;;;;;513989;231;27362;-72
2023/04/27 00:34:57;;;;;;;5.78;3.60;;;3.60;99.90;;;;;;513828;231;27415;-71
2023/04/27 00:36:58;;;;;;;9.52;4.80;;;3.60;99.90;;;;;;513990;231;27398;-72
2023/04/27 00:39:00;;;;;;;6.05;4.20;;;3.60;99.90;;;;;;514027;231;27359;-73
2023/04/27 00:41:01;;;;;;;4.68;3.75;;;3.70;99.90;;;;;;514020;231;27315;-72
2023/04/27 00:43:02;;;;;;;4.72;4.05;;;3.60;99.90;;;;;;513984;231;27857;-72
2023/04/27 00:45:04;;;;;;;7.10;3.97;;;3.70;99.90;;;;;;513887;231;27936;-72
2023/04/27 00:47:05;;;;;;;4.35;3.85;;;3.80;99.90;;;;;;513942;231;27921;-71
2023/04/27 00:49:06;;;;;;;7.85;4.93;;;3.60;99.90;;;;;;513988;231;27449;-71
2023/04/27 00:51:07;;;;;;;5.53;4.15;;;3.50;99.90;;;;;;513982;231;27428;-72
2023/04/27 00:53:08;;;;;;;5.07;4.10;;;3.50;99.90;;;;;;513995;231;27367;-72
2023/04/27 00:55:10;;;;;;;7.10;3.90;;;3.50;99.90;;;;;;513875;231;27502;-72
2023/04/27 00:57:11;;;;;;;6.57;4.20;;;3.50;99.90;;;;;;513974;231;27378;-72
2023/04/27 00:59:12;;;;;;;4.95;4.25;;;3.40;99.90;;;;;;514029;231;27712;-73
2023/04/27 01:01:13;;;;;;;5.80;4.43;;;3.30;99.90;;;;;;514021;231;27503;-72
2023/04/27 01:03:15;;;;;;;5.43;4.45;;;3.00;99.90;;;;;;514003;231;27489;-72
2023/04/27 01:05:16;;;;;;;5.20;4.12;;;3.60;99.90;;;;;;513883;231;27406;-71
2023/04/27 01:07:17;;;;;;;6.97;5.10;;;3.10;99.90;;;;;;514016;231;27977;-71
2023/04/27 01:09:18;;;;;;;8.60;5.00;;;3.40;99.90;;;;;;514019;231;27941;-73
2023/04/27 01:11:20;;;;;;;8.55;5.20;;;3.50;99.90;;;;;;514008;231;27763;-72
2023/04/27 01:13:21;;;;;;;5.40;4.82;;;3.50;99.90;;;;;;514006;231;27433;-72
2023/04/27 01:15:22;;;;;;;5.32;4.40;;;3.60;99.90;;;;;;513920;231;27389;-72
2023/04/27 01:17:23;;;;;;;9.55;4.75;;;3.60;99.90;;;;;;514027;231;27386;-72
2023/04/27 01:19:25;;;;;;;5.37;4.78;;;3.70;99.90;;;;;;514037;231;27465;-72
2023/04/27 01:21:26;;;;;;;11.07;4.93;;;3.70;99.90;;;;;;514017;231;27422;-71
2023/04/27 01:23:27;;;;;;;8.50;4.50;;;3.10;99.90;;;;;;513998;231;27453;-72
2023/04/27 01:25:28;;;;;;;5.90;4.50;;;3.80;99.90;;;;;;514004;231;27366;-71
2023/04/27 01:27:30;;;;;;;7.07;4.80;;;3.80;99.90;;;;;;514067;231;27433;-72
2023/04/27 01:29:31;;;;;;;7.30;4.35;;;3.80;99.90;;;;;;514069;231;27839;-71
2023/04/27 01:31:32;;;;;;;6.45;4.55;;;3.90;99.90;;;;;;514013;231;27783;-72
2023/04/27 01:33:33;;;;;;;4.70;4.25;;;3.90;99.90;;;;;;514044;231;27854;-72
2023/04/27 01:35:35;;;;;;;6.25;4.60;;;4.00;99.90;;;;;;513946;231;27872;-72
2023/04/27 01:37:36;;;;;;;5.20;4.45;;;4.00;99.90;;;;;;514045;231;27465;-72
2023/04/27 01:39:37;;;;;;;6.15;4.50;;;4.00;99.90;;;;;;514033;231;27437;-72
2023/04/27 01:41:38;;;;;;;5.32;4.57;;;4.40;99.90;;;;;;514007;231;27404;-71
2023/04/27 01:43:41;;;;;;;6.18;4.07;;;4.30;99.90;;;;;;514013;231;27382;-72
2023/04/27 01:45:41;;;;;;;4.00;3.70;;;4.20;99.90;;;;;;513865;231;27327;-72
2023/04/27 01:47:42;;;;;;;6.00;4.32;;;3.90;99.90;;;;;;514014;231;27339;-72
2023/04/27 01:49:43;;;;;;;4.97;4.47;;;4.20;99.90;;;;;;514044;231;27386;-72
2023/04/27 01:51:45;;;;;;;7.90;4.53;;;4.20;99.90;;;;;;513975;231;27772;-72
2023/04/27 01:53:46;;;;;;;4.82;4.30;;;4.30;99.90;;;;;;513835;231;27925;-72
2023/04/27 01:55:47;;;;;;;7.65;3.95;;;4.20;99.90;;;;;;513953;231;27857;-72
2023/04/27 01:57:48;;;;;;;7.10;5.18;;;4.20;99.90;;;;;;514090;231;27405;-72
2023/04/27 01:59:50;;;;;;;5.20;4.05;;;4.30;99.90;;;;;;514057;231;27483;-73
2023/04/27 02:01:51;;;;;;;6.05;4.80;;;4.20;99.90;;;;;;514034;231;27394;-72
2023/04/27 02:03:52;;;;;;;6.10;5.12;;;4.20;99.90;;;;;;514028;231;27371;-71
2023/04/27 02:05:54;;;;;;;9.15;4.95;;;4.10;99.90;;;;;;513994;231;27374;-73
2023/04/27 02:07:55;;;;;;;5.93;4.20;;;4.00;99.90;;;;;;514047;231;27335;-72
2023/04/27 02:09:56;;;;;;;4.93;4.45;;;4.00;99.90;;;;;;514058;231;27490;-72
2023/04/27 02:11:57;;;;;;;4.25;3.83;;;4.20;99.90;;;;;;513994;231;27892;-71
2023/04/27 02:13:59;;;;;;;4.62;4.12;;;4.20;99.90;;;;;;514006;231;27854;-72
2023/04/27 02:16:02;;;;;;;6.80;4.07;;;4.20;99.90;;;;;;513955;231;27347;-73
2023/04/27 02:18:02;;;;;;;5.37;4.85;;;4.10;99.90;;;;;;513882;231;27423;-72
2023/04/27 02:20:04;;;;;;;5.00;4.45;;;4.10;99.90;;;;;;514026;231;27442;-72
2023/04/27 02:22:04;;;;;;;8.57;4.10;;;4.10;99.90;;;;;;513931;231;27466;-72
2023/04/27 02:24:05;;;;;;;10.15;4.90;;;4.00;99.90;;;;;;514028;231;27367;-72
2023/04/27 02:26:06;;;;;;;6.03;4.78;;;3.90;99.90;;;;;;513916;231;27851;-73
2023/04/27 02:28:07;;;;;;;6.87;4.62;;;4.00;99.90;;;;;;514043;231;27784;-72
2023/04/27 02:30:09;;;;;;;7.05;4.65;;;4.00;99.90;;;;;;514009;231;27839;-71
2023/04/27 02:32:10;;;;;;;6.05;4.28;;;4.00;99.90;;;;;;513997;231;27311;-72
2023/04/27 02:34:11;;;;;;;6.97;5.00;;;4.00;99.90;;;;;;513972;231;27465;-72
2023/04/27 02:36:12;;;;;;;5.93;4.35;;;4.10;99.90;;;;;;514011;231;27393;-73
2023/04/27 02:38:14;;;;;;;7.28;4.80;;;4.10;99.90;;;;;;514026;231;27377;-71
2023/04/27 02:40:15;;;;;;;5.22;4.70;;;4.20;99.90;;;;;;514036;231;27453;-72
2023/04/27 02:42:16;;;;;;;6.47;4.68;;;4.10;99.90;;;;;;514009;231;27343;-72
2023/04/27 02:44:17;;;;;;;5.40;4.10;;;4.20;99.90;;;;;;514006;231;27441;-72
2023/04/27 02:46:19;;;;;;;5.32;4.12;;;4.30;99.90;;;;;;513939;231;27998;-73
2023/04/27 02:48:20;;;;;;;4.47;4.00;;;4.30;99.90;;;;;;514018;231;27790;-71
2023/04/27 02:50:21;;;;;;;5.15;4.65;;;4.30;99.90;;;;;;514029;231;27886;-71
2023/04/27 02:52:22;;;;;;;5.50;4.55;;;4.30;99.90;;;;;;514013;231;27408;-72
2023/04/27 02:54:24;;;;;;;4.37;3.97;;;4.40;99.90;;;;;;513964;231;27506;-72
2023/04/27 02:56:25;;;;;;;8.43;4.72;;;4.30;99.90;;;;;;514055;231;27371;-73
2023/04/27 02:58:26;;;;;;;5.05;3.83;;;4.40;99.90;;;;;;514002;231;27411;-72
2023/04/27 03:00:27;;;;;;;7.43;4.20;;;4.50;99.90;;;;;;513994;231;27398;-72
2023/04/27 03:02:29;;;;;;;5.60;4.53;;;4.60;99.90;;;;;;513999;231;27398;-72
2023/04/27 03:04:30;;;;;;;6.72;4.20;;;4.60;99.90;;;;;;513958;231;27780;-72
2023/04/27 03:06:31;;;;;;;5.82;4.53;;;4.50;99.90;;;;;;514012;231;27972;-73
2023/04/27 03:08:32;;;;;;;5.78;4.05;;;4.50;99.90;;;;;;514026;231;27331;-72
2023/04/27 03:10:34;;;;;;;4.75;3.70;;;4.50;99.90;;;;;;513978;231;27465;-72
2023/04/27 03:12:35;;;;;;;3.55;3.25;;;4.50;99.90;;;;;;514003;231;27324;-72
2023/04/27 03:14:36;;;;;;;4.93;4.43;;;4.50;99.90;;;;;;513934;231;27390;-72
2023/04/27 03:16:37;;;;;;;6.05;4.25;;;4.60;99.90;;;;;;514004;231;27469;-73
2023/04/27 03:18:39;;;;;;;4.90;4.18;;;4.50;99.90;;;;;;514024;231;27877;-71
2023/04/27 03:20:40;;;;;;;6.00;4.68;;;4.60;99.90;;;;;;514036;231;27826;-72
2023/04/27 03:22:41;;;;;;;9.20;4.90;;;4.60;99.90;;;;;;514042;231;27323;-72
2023/04/27 03:24:42;;;;;;;4.60;4.10;;;4.60;99.90;;;;;;513938;231;27472;-72
2023/04/27 03:26:44;;;;;;;8.60;4.72;;;4.70;99.90;;;;;;514067;231;27379;-73
2023/04/27 03:28:45;;;;;;;4.53;4.10;;;4.60;99.90;;;;;;514042;231;27331;-72
2023/04/27 03:30:46;;;;;;;5.57;4.03;;;4.70;99.90;;;;;;514055;231;27728;-72
2023/04/27 03:32:48;;;;;;;4.00;3.60;;;4.70;99.90;;;;;;514030;231;27395;-72
2023/04/27 03:34:49;;;;;;;5.32;4.05;;;4.70;99.90;;;;;;513992;231;27867;-72
2023/04/27 03:36:50;;;;;;;4.62;3.47;;;4.70;99.90;;;;;;514053;231;27966;-73
2023/04/27 03:38:51;;;;;;;5.30;3.60;;;4.70;99.90;;;;;;514047;231;27927;-72
2023/04/27 03:40:53;;;;;;;3.90;3.50;;;4.70;99.90;;;;;;514026;231;27491;-72
2023/04/27 03:42:54;;;;;;;5.37;3.35;;;4.60;99.90;;;;;;514029;231;27354;-72
2023/04/27 03:44:55;;;;;;;4.62;3.60;;;4.60;99.90;;;;;;513975;231;27327;-72
2023/04/27 03:46:56;;;;;;;5.45;4.00;;;4.70;99.90;;;;;;514024;231;27378;-72
2023/04/27 03:48:58;;;;;;;5.05;3.30;;;4.60;99.90;;;;;;514031;231;27326;-71
2023/04/27 03:50:59;;;;;;;4.70;4.22;;;4.70;99.90;;;;;;514008;231;27871;-72
2023/04/27 03:53:00;;;;;;;4.90;3.85;;;4.70;99.90;;;;;;514034;231;27992;-73
2023/04/27 03:55:01;;;;;;;6.60;4.75;;;4.60;99.90;;;;;;513971;231;27322;-72
2023/04/27 03:57:03;;;;;;;7.03;4.62;;;4.50;99.90;;;;;;514028;231;27351;-71
2023/04/27 03:59:04;;;;;;;9.27;4.45;;;4.50;99.90;;;;;;513935;231;27363;-72
2023/04/27 04:01:05;;;;;;;7.68;4.70;;;4.50;99.90;;;;;;513986;231;27448;-72
2023/04/27 04:03:07;;;;;;;8.10;4.80;;;4.40;99.90;;;;;;514037;231;27391;-72
2023/04/27 04:05:08;;;;;;;11.23;4.12;;;4.40;99.90;;;;;;513956;231;27337;-72
2023/04/27 04:07:09;;;;;;;6.43;4.55;;;4.40;99.90;;;;;;513986;231;27406;-72
2023/04/27 04:09:11;;;;;;;6.20;4.20;;;4.50;99.90;;;;;;514008;231;27784;-71
2023/04/27 04:11:11;;;;;;;5.68;4.37;;;4.50;99.90;;;;;;513967;231;27850;-72
2023/04/27 04:13:13;;;;;;;7.07;4.30;;;4.50;99.90;;;;;;514031;231;27355;-73
2023/04/27 04:15:14;;;;;;;5.62;3.95;;;4.60;99.90;;;;;;513966;231;27378;-71
2023/04/27 04:17:15;;;;;;;5.90;4.82;;;4.60;99.90;;;;;;513950;231;27382;-72
2023/04/27 04:19:16;;;;;;;9.25;5.35;;;4.60;99.90;;;;;;514006;231;27312;-72
2023/04/27 04:21:18;;;;;;;8.15;5.10;;;4.60;99.90;;;;;;513997;231;27367;-72
2023/04/27 04:23:19;;;;;;;7.75;5.12;;;4.60;99.90;;;;;;514014;231;27407;-74
2023/04/27 04:25:20;;;;;;;4.47;3.72;;;4.70;99.90;;;;;;513960;231;27432;-71
2023/04/27 04:27:21;;;;;;;6.00;4.68;;;4.70;99.90;;;;;;513982;231;27953;-72
2023/04/27 04:29:23;;;;;;;5.57;4.50;;;4.80;99.90;;;;;;513971;231;27793;-72
2023/04/27 04:31:25;;;;;;;6.93;3.30;;;4.80;99.90;;;;;;513999;231;27468;-72
2023/04/27 04:33:25;;;;;;;5.05;3.55;;;4.80;99.90;;;;;;513996;231;27398;-73
2023/04/27 04:35:26;;;;;;;5.28;3.90;;;4.80;99.90;;;;;;513954;231;27422;-72
2023/04/27 04:37:28;;;;;;;7.37;4.12;;;4.80;99.90;;;;;;514014;231;27391;-73
2023/04/27 04:39:29;;;;;;;7.15;4.20;;;4.90;99.90;;;;;;514015;231;27331;-72
2023/04/27 04:41:31;;;;;;;4.30;3.90;;;4.90;99.90;;;;;;514024;231;27457;-72
2023/04/27 04:43:31;;;;;;;3.78;3.47;;;4.80;99.90;;;;;;514013;231;27874;-73
2023/04/27 04:45:33;;;;;;;5.28;3.70;;;4.80;99.90;;;;;;513952;231;27820;-72
2023/04/27 04:47:34;;;;;;;4.65;3.65;;;4.80;99.90;;;;;;514016;231;27960;-72
2023/04/27 04:49:35;;;;;;;5.68;4.53;;;4.70;99.90;;;;;;513985;231;27322;-72
2023/04/27 04:51:36;;;;;;;6.30;4.62;;;4.80;99.90;;;;;;513995;231;27437;-72
2023/04/27 04:53:38;;;;;;;6.87;4.53;;;4.70;99.90;;;;;;514036;231;27353;-73
2023/04/27 04:55:39;;;;;;;5.85;4.68;;;4.80;99.90;;;;;;513943;231;27418;-72
2023/04/27 04:57:40;;;;;;;6.05;4.50;;;4.80;99.90;;;;;;513991;231;27357;-72
2023/04/27 04:59:42;;;;;;;5.45;4.12;;;4.90;99.90;;;;;;514015;231;27410;-72
2023/04/27 05:01:43;;;;;;;4.03;3.62;;;4.90;99.90;;;;;;514040;231;27835;-72
2023/04/27 05:03:44;;;;;;;8.18;4.53;;;4.90;99.90;;;;;;514058;231;27838;-72
2023/04/27 05:05:45;;;;;;;6.25;4.35;;;4.90;99.90;;;;;;514004;231;27491;-72
2023/04/27 05:07:47;;;;;;;4.43;3.72;;;4.80;99.90;;;;;;514033;231;27556;-72
2023/04/27 05:09:48;;;;;;;6.97;4.65;;;4.80;99.90;;;;;;514042;231;27327;-72
2023/04/27 05:11:49;;;;;;;5.97;4.20;;;4.80;99.90;;;;;;513996;231;27373;-72
2023/04/27 05:13:50;;;;;;;6.43;4.50;;;4.90;99.90;;;;;;514038;231;27530;-72
2023/04/27 05:15:52;;;;;;;9.00;4.47;;;4.90;99.90;;;;;;513973;231;27820;-72
2023/04/27 05:17:53;;;;;;;5.12;4.07;;;4.90;99.90;;;;;;513969;231;27966;-72
2023/04/27 05:19:54;;;;;;;4.15;3.75;;;5.00;99.90;;;;;;514021;231;27486;-72
2023/04/27 05:21:55;;;;;;;4.90;4.22;;;5.10;99.90;;;;;;514035;231;27358;-72
2023/04/27 05:23:57;;;;;;;6.35;4.25;;;5.20;99.90;;;;;;514033;231;27451;-72
2023/04/27 05:25:58;;;;;;;4.87;4.05;;;5.20;99.90;;;;;;513964;231;27401;-72
2023/04/27 05:27:59;;;;;;;5.57;4.03;;;5.30;99.90;;;;;;514048;231;27374;-72
2023/04/27 05:30:00;;;;;;;5.03;4.32;;;5.30;99.90;;;;;;514065;231;28055;-72
2023/04/27 05:32:02;;;;;;;5.30;3.95;;;5.40;99.90;;;;;;514075;231;27807;-72
2023/04/27 05:34:03;;;;;;;5.65;3.80;;;5.30;99.90;;;;;;514065;231;27371;-73
2023/04/27 05:36:04;;;;;;;5.75;3.85;;;5.30;99.90;;;;;;513979;231;27442;-72
2023/04/27 05:38:05;;;;;;;5.07;4.18;;;5.30;99.90;;;;;;513983;231;27454;-72
2023/04/27 05:40:08;;;;;;;5.75;4.35;;;5.30;99.90;;;;;;514031;231;27699;-73
2023/04/27 05:42:08;;;;;;;4.32;3.75;;;5.40;99.90;;;;;;513937;231;27338;-72
2023/04/27 05:44:09;;;;;;;4.10;3.70;;;5.40;99.90;;;;;;514016;231;28271;-72
2023/04/27 05:46:11;;;;;;;4.25;3.60;;;5.60;99.90;;;;;;514025;231;27336;-72
2023/04/27 05:48:13;;;;;;;5.37;4.05;;;5.70;99.90;;;;;;514053;231;27460;-72
2023/04/27 05:50:13;;;;;;;5.55;4.30;;;5.80;99.90;;;;;;514019;231;27361;-73
2023/04/27 05:52:14;;;;;;;8.52;4.10;;;5.80;99.90;;;;;;514010;231;27378;-72
2023/04/27 05:54:15;;;;;;;5.43;4.23;;;5.80;99.90;;;;;;514022;231;27371;-73
2023/04/27 05:56:17;;;;;;;7.80;4.45;;;5.90;99.90;;;;;;514008;231;28646;-72
2023/04/27 05:58:18;;;;;;;6.37;4.20;;;5.80;99.90;;;;;;514020;231;27943;-72
2023/04/27 06:00:21;;;;;;;4.55;4.15;;;5.90;99.90;;;;;;514070;231;27497;-73
2023/04/27 06:02:21;;;;;;;6.97;4.32;;;5.90;99.90;;;;;;513906;231;27327;-72
2023/04/27 06:04:22;;;;;;;5.07;4.45;;;5.80;99.90;;;;;;513949;231;27370;-72
2023/04/27 06:06:23;;;;;;;7.00;4.33;;;5.80;99.90;;;;;;514039;231;27331;-72
2023/04/27 06:08:24;;;;;;;7.23;4.70;;;5.90;99.90;;;;;;514052;231;28476;-73
2023/04/27 06:10:26;;;;;;;5.73;5.00;;;5.90;99.90;;;;;;514061;231;29084;-73
2023/04/27 06:12:27;;;;;;;7.70;4.50;;;5.90;99.90;;;;;;514033;231;27773;-72
2023/04/27 06:14:28;;;;;;;6.43;4.93;;;6.00;99.90;;;;;;513991;231;27906;-73
2023/04/27 06:16:29;;;;;;;8.40;4.30;;;6.10;99.90;;;;;;514009;231;28247;-72
2023/04/27 06:18:31;;;;;;;6.90;4.70;;;6.10;99.90;;;;;;514055;231;27841;-72
2023/04/27 06:20:32;;;;;;;10.55;5.72;;;6.20;99.90;;;;;;514060;231;27468;-74
2023/04/27 06:22:33;;;;;;;10.03;5.50;;;6.30;99.90;;;;;;514055;231;27323;-72
2023/04/27 06:24:35;;;;;;;11.12;5.22;;;6.40;99.90;;;;;;513929;231;27446;-72
2023/04/27 06:26:36;;;;;;;7.70;4.97;;;6.50;99.90;;;;;;514014;231;27342;-72
2023/04/27 06:28:37;;;;;;;7.87;5.53;;;6.60;99.90;;;;;;513997;231;27843;-72
2023/04/27 06:30:38;;;;;;;8.37;5.33;;;6.70;99.90;;;;;;514050;231;27697;-73
2023/04/27 06:32:39;;;;;;;7.10;4.70;;;6.70;99.90;;;;;;514040;231;29136;-73
2023/04/27 06:34:41;;;;;;;5.93;4.10;;;6.80;99.90;;;;;;513905;231;28306;-72
2023/04/27 06:36:42;;;;;;;9.57;5.17;;;6.90;99.90;;;;;;514032;231;28240;-73
2023/04/27 06:38:43;;;;;;;6.23;4.37;;;6.90;99.90;;;;;;514041;231;28342;-73
2023/04/27 06:40:44;;;;;;;8.73;5.07;;;7.00;99.90;;;;;;513920;231;28545;-72
2023/04/27 06:42:46;;;;;;;6.80;5.10;;;6.90;99.90;;;;;;514084;231;27870;-72
2023/04/27 06:44:47;;;;;;;7.63;5.00;;;6.90;99.90;;;;;;514019;231;27799;-73
2023/04/27 06:46:48;;;;;;;6.70;4.30;;;7.00;99.90;;;;;;514067;231;27761;-72
2023/04/27 06:48:51;;;;;;;4.83;4.20;;;7.00;99.90;;;;;;514036;231;27842;-73
2023/04/27 06:50:51;;;;;;;4.77;4.27;;;7.10;99.90;;;;;;513946;231;27695;-72
2023/04/27 06:52:52;;;;;;;7.63;4.03;;;7.10;99.90;;;;;;514037;231;27642;-73
2023/04/27 06:54:53;;;;;;;5.23;4.40;;;7.20;99.90;;;;;;513988;231;27924;-73
2023/04/27 06:56:54;;;;;;;5.87;4.50;;;7.30;99.90;;;;;;514032;231;27671;-72
2023/04/27 06:58:56;;;;;;;5.07;3.90;;;7.30;99.90;;;;;;514022;231;28007;-73
2023/04/27 07:00:57;;;;;;;5.20;3.83;;;7.40;99.90;;;;;;514042;231;27721;-73
2023/04/27 07:02:58;;;;;;;7.80;4.00;;;7.40;99.90;;;;;;514064;231;27761;-73
2023/04/27 07:04:59;;;;;;;4.93;3.60;;;7.40;99.90;;;;;;513983;231;28017;-73
2023/04/27 07:07:01;;;;;;;7.47;3.90;;;7.50;99.90;;;;;;514050;231;27870;-73
2023/04/27 07:09:04;;;;;;;5.90;3.90;;;7.50;99.90;;;;;;513993;231;27804;-73
2023/04/27 07:11:03;;;;;;;5.27;4.00;;;7.60;99.90;;;;;;513799;231;29406;-72
2023/04/27 07:13:04;;;;;;;8.33;3.80;;;7.70;99.90;;;;;;514041;231;27977;-73
2023/04/27 07:15:06;;;;;;;8.07;4.40;;;7.80;99.90;;;;;;513998;231;28318;-74
2023/04/27 07:17:07;;;;;;;7.93;4.33;;;7.90;99.90;;;;;;514021;231;28240;-73
2023/04/27 07:19:08;;;;;;;4.57;3.37;;;8.00;99.90;;;;;;514033;231;28293;-73
2023/04/27 07:21:09;;;;;;;4.40;3.33;;;8.10;99.90;;;;;;514007;231;27556;-72
2023/04/27 07:23:11;;;;;;;4.30;3.90;;;8.20;99.90;;;;;;514049;231;27792;-73
2023/04/27 07:25:12;;;;;;;6.13;3.90;;;8.50;99.90;;;;;;513944;231;27807;-73
2023/04/27 07:27:13;;;;;;;8.07;3.63;;;8.60;99.90;;;;;;514043;231;27894;-73
2023/04/27 07:29:16;;;;;;;5.93;3.37;;;8.60;99.90;;;;;;514048;231;27850;-73
2023/04/27 07:31:16;;;;;;;6.40;3.50;;;8.80;99.90;;;;;;513918;231;27816;-72
2023/04/27 07:33:17;;;;;;;5.27;3.97;;;8.70;99.90;;;;;;514026;231;27800;-73
2023/04/27 07:35:18;;;;;;;6.00;3.73;;;8.80;99.90;;;;;;514005;231;27955;-74
2023/04/27 07:37:19;;;;;;;3.73;3.33;;;8.90;99.90;;;;;;514022;231;27893;-73
2023/04/27 07:39:21;;;;;;;8.00;3.53;;;9.10;99.90;;;;;;514013;231;27831;-73
2023/04/27 07:41:22;;;;;;;6.10;3.67;;;9.10;99.90;;;;;;514032;231;27912;-72
2023/04/27 07:43:24;;;;;;;8.40;4.03;;;9.10;99.90;;;;;;514055;231;27788;-73
2023/04/27 07:45:31;;;;;;;5.10;3.40;;;9.20;99.90;;;;;;513924;231;28310;-74
2023/04/27 07:47:29;;;;;;;6.33;3.80;;;9.30;99.90;;;;;;513722;231;27905;-73
2023/04/27 07:49:30;;;;;;;6.03;3.70;;;9.40;99.90;;;;;;514013;231;27800;-72
2023/04/27 07:51:33;;;;;;;3.67;3.37;;;9.60;99.90;;;;;;513980;231;27857;-73
2023/04/27 07:53:32;;;;;;;5.83;3.60;;;9.70;99.90;;;;;;513915;231;28153;-74
2023/04/27 07:55:34;;;;;;;6.37;4.10;;;9.70;99.90;;;;;;514004;231;27757;-73
2023/04/27 07:57:35;;;;;;;6.13;3.80;;;9.70;99.90;;;;;;514044;231;27852;-74
2023/04/27 07:59:36;;;;;;;6.70;3.50;;;9.70;99.90;;;;;;513983;231;27944;-73
2023/04/27 08:01:37;;;;;;;3.67;2.97;;;9.70;99.90;;;;;;513991;231;27584;-73
2023/04/27 08:03:39;;;;;;;5.50;3.20;;;9.80;99.90;;;;;;513869;231;28053;-74
2023/04/27 08:05:40;;;;;;;4.60;3.20;;;9.80;99.90;;;;;;513938;231;28213;-72
2023/04/27 08:07:41;;;;;;;6.43;3.53;;;9.90;99.90;;;;;;514027;231;27893;-73
2023/04/27 08:09:42;;;;;;;5.70;3.00;;;10.30;99.90;;;;;;513833;231;27867;-73
2023/04/27 08:11:44;;;;;;;4.60;3.03;;;10.30;99.90;;;;;;514048;231;27927;-73
2023/04/27 08:13:45;;;;;;;4.10;3.00;;;10.40;99.90;;;;;;514057;231;28474;-74
2023/04/27 08:15:46;;;;;;;3.20;2.90;;;10.50;99.90;;;;;;513981;231;28313;-73
2023/04/27 08:17:47;;;;;;;4.63;3.07;;;10.50;99.90;;;;;;513965;231;27839;-73
2023/04/27 08:19:49;;;;;;;4.37;2.83;;;10.60;99.90;;;;;;514051;231;27847;-73
2023/04/27 08:21:50;;;;;;;4.10;3.03;;;10.80;99.90;;;;;;514044;231;27906;-73
2023/04/27 08:23:51;;;;;;;3.43;3.13;;;10.90;99.90;;;;;;514072;231;27957;-74
2023/04/27 08:25:52;;;;;;;3.03;2.47;;;11.20;99.90;;;;;;513999;231;27902;-72
2023/04/27 08:27:54;;;;;;;3.13;2.70;;;11.20;99.90;;;;;;514030;231;28020;-72
2023/04/27 08:29:55;;;;;;;4.13;3.00;;;11.30;99.90;;;;;;514012;231;28155;-73
2023/04/27 08:31:56;;;;;;;3.63;2.90;;;11.40;99.90;;;;;;513981;231;28049;-73
2023/04/27 08:33:57;;;;;;;4.40;2.83;;;11.50;99.90;;;;;;514037;231;28065;-73
2023/04/27 08:35:59;;;;;;;6.13;2.93;;;11.60;99.90;;;;;;513967;231;28565;-73
2023/04/27 08:38:00;;;;;;;8.23;3.27;;;11.80;99.90;;;;;;513985;231;28742;-73
2023/04/27 08:40:01;;;;;;;4.93;2.57;;;12.00;99.90;;;;;;514045;231;28476;-73
2023/04/27 08:42:02;;;;;;;5.63;3.00;;;12.20;99.00;;;;;;513965;231;28893;-73
2023/04/27 08:44:04;;;;;;;3.10;2.57;;;12.30;97.40;;;;;;514045;231;28365;-74
2023/04/27 08:46:05;;;;;;;5.33;2.60;;;12.40;96.50;;;;;;513972;231;28253;-73
2023/04/27 08:48:06;;;;;;;4.97;2.80;;;12.50;97.70;;;;;;514016;231;28292;-73
2023/04/27 08:50:07;;;;;;;6.40;2.60;;;12.70;96.80;;;;;;513989;231;28240;-72
2023/04/27 08:52:09;;;;;;;2.70;2.23;;;12.80;98.60;;;;;;514004;231;28193;-73
2023/04/27 08:54:11;;;;;;;5.43;2.70;;;;;;;;;;514011;231;28074;-73
2023/04/27 08:56:12;;;;;;;2.90;2.23;;;12.80;88.90;;;;;;513961;231;26817;-74
2023/04/27 08:58:14;;;;;;;7.83;2.93;;;12.90;87.60;;;;;;514005;231;28265;-73
2023/04/27 09:00:15;;;;;;;10.30;2.80;;;12.90;87.10;;;;;;514005;231;28161;-74
2023/04/27 09:02:16;;;;;;;4.93;2.57;;;13.00;87.30;;;;;;514046;231;28145;-74
2023/04/27 09:04:18;;;;;;;4.10;3.20;;;13.20;85.80;;;;;;513958;231;28197;-73
2023/04/27 09:06:19;;;;;;;5.97;2.93;;;13.30;84.60;;;;;;513955;231;28382;-73
2023/04/27 09:08:20;;;;;;;3.20;2.63;;;13.30;88.60;;;;;;514023;231;28397;-72
2023/04/27 09:10:22;;;;;;;4.03;3.13;;;13.40;94.70;;;;;;513991;231;28436;-74
2023/04/27 09:12:22;;;;;;;3.83;2.40;;;13.30;81.10;;;;;;514035;231;28661;-75
2023/04/27 09:14:24;;;;;;;3.50;2.60;;;13.30;91.70;;;;;;513915;231;29177;-73
2023/04/27 09:16:25;;;;;;;9.30;2.80;;;13.20;93.30;;;;;;514046;231;29240;-74
2023/04/27 09:18:26;;;;;;;3.77;2.63;;;13.20;92.80;;;;;;514027;231;28975;-73
2023/04/27 09:20:27;;;;;;;4.90;3.00;;;13.20;93.10;;;;;;514030;231;28441;-73
2023/04/27 09:22:29;;;;;;;3.37;2.50;;;13.30;94.60;;;;;;514051;231;28484;-73
2023/04/27 09:24:30;;;;;;;5.20;2.67;;;13.40;93.90;;;;;;513943;231;28400;-73
2023/04/27 09:26:31;;;;;;;5.33;2.97;;;13.50;95.30;;;;;;514065;231;28672;-73
2023/04/27 09:28:33;;;;;;;4.90;2.83;;;13.50;80.20;;;;;;514066;231;28337;-73
2023/04/27 09:30:35;;;;;;;9.63;3.23;;;13.70;93.90;;;;;;514087;231;29113;-73
2023/04/27 09:32:35;;;;;;;3.90;2.97;;;13.40;93.40;;;;;;513917;231;28273;-75
2023/04/27 09:34:36;;;;;;;3.50;2.60;;;13.70;79.10;;;;;;513935;231;28643;-73
2023/04/27 09:36:37;;;;;;;3.13;2.60;;;13.80;78.40;;;;;;514058;231;28670;-73
2023/04/27 09:38:39;;;;;;;7.23;2.47;;;13.90;77.30;;;;;;514034;231;29188;-73
2023/04/27 09:40:40;;;;;;;10.13;2.90;;;14.00;87.20;;;;;;514008;231;29213;-73
2023/04/27 09:42:41;;;;;;;5.43;2.60;;;14.10;93.70;;;;;;514099;231;29853;-74
2023/04/27 09:44:42;;;;;;;2.73;2.20;;;14.20;91.50;;;;;;513950;231;28645;-73
2023/04/27 09:46:45;;;;;;;4.13;2.30;;;14.30;91.40;;;;;;514050;231;28677;-73
2023/04/27 09:48:45;;;;;;;3.47;2.30;;;14.40;80.70;;;;;;513981;231;28356;-73
2023/04/27 09:50:46;;;;;;;3.47;3.00;;;14.50;83.10;;;;;;514015;231;28694;-73
2023/04/27 09:52:47;;;;;;;5.23;2.70;;;14.50;92.30;;;;;;514055;231;28990;-74
2023/04/27 09:54:49;;;;;;;6.27;2.80;;;14.50;90.80;;;;;;513913;231;28736;-73
2023/04/27 09:56:50;;;;;;;7.03;3.03;;;14.50;93.90;;;;;;513987;231;28674;-73
2023/04/27 09:58:51;;;;;;;3.47;2.30;;;14.50;92.80;;;;;;514047;231;28633;-73
2023/04/27 10:00:52;;;;;;;3.43;2.80;;;14.60;93.70;;;;;;514040;231;29346;-72
2023/04/27 10:02:54;;;;;;;3.47;2.60;;;14.50;91.20;;;;;;514075;231;29192;-75
2023/04/27 10:04:55;;;;;;;5.13;2.47;;;15.00;91.30;;;;;;513972;231;29286;-74
2023/04/27 10:06:56;;;;;;;5.83;3.20;;;14.80;90.40;;;;;;514051;231;29156;-74
2023/04/27 10:08:58;;;;;;;8.27;2.90;;;14.50;86.80;;;;;;514050;231;28712;-73
2023/04/27 10:10:59;;;;;;;2.80;2.60;;;14.40;91.10;;;;;;514011;231;28690;-74
2023/04/27 10:13:00;;;;;;;4.33;2.77;;;14.40;90.20;;;;;;514067;231;28695;-73
2023/04/27 10:15:01;;;;;;;5.33;2.47;;;14.20;89.60;;;;;;513991;231;28717;-74
2023/04/27 10:17:02;;;;;;;6.20;2.97;;;14.10;89.30;;;;;;513996;231;28759;-74
2023/04/27 10:19:04;;;;;;;4.13;2.80;;;14.20;90.50;;;;;;513811;231;28634;-73
2023/04/27 10:21:05;;;;;;;8.07;2.70;;;14.30;89.20;;;;;;514028;231;28682;-73
2023/04/27 10:23:06;;;;;;;2.70;2.33;;;14.40;90.80;;;;;;514029;231;28646;-72
2023/04/27 10:25:07;;;;;;;6.03;2.33;;;14.70;91.40;;;;;;513993;231;29172;-73
2023/04/27 10:27:09;;;;;;;3.23;2.10;;;14.80;90.30;;;;;;514052;231;29153;-74
2023/04/27 10:29:11;;;;;;;3.60;2.57;;;15.00;90.80;;;;;;513998;231;29159;-73
2023/04/27 10:31:11;;;;;;;5.37;2.07;;;15.10;90.10;;;;;;513995;231;29242;-73
2023/04/27 10:33:12;;;;;;;3.93;2.50;;;15.10;88.70;;;;;;514029;231;28705;-73
2023/04/27 10:35:14;;;;;;;3.27;2.00;;;15.00;87.20;;;;;;513960;231;28648;-73
2023/04/27 10:37:15;;;;;;;3.23;2.70;;;14.60;89.80;;;;;;514032;231;28685;-73